Time;durP1;ratioP1;P1;durP2;ratioP2;P2;SDS_P1;SDS_P2;PMS_P1;PMS_P2;Temp;Humidity;BMP_temperature;BMP_pressure;BME280_temperature;BME280_humidity;BME280_pressure;Samples;Min_cycle;Max_cycle;Signal;HPM_P1;HPM_P2
2021/07/14 00:00:46;;;;;;;;;;;20.40;65.50;;;;;;484711;245;1175;-43
2021/07/14 00:02:47;;;;;;;;;;;20.40;65.60;;;;;;485136;245;1053;-44
2021/07/14 00:04:48;;;;;;;;;;;20.30;65.50;;;;;;484816;245;2203;-43
2021/07/14 00:06:50;;;;;;;;;;;20.30;65.60;;;;;;485133;245;1202;-44
2021/07/14 00:08:51;;;;;;;;;;;20.40;65.50;;;;;;485137;245;1133;-43
2021/07/14 00:10:52;;;;;;;;;;;20.40;65.50;;;;;;485184;245;1083;-43
2021/07/14 00:12:59;;;;;;;;;;;20.40;65.50;;;;;;484736;245;1203;-44
2021/07/14 00:17:00;;;;;;;;;;;20.30;65.40;;;;;;484927;246;1831;-44
2021/07/14 00:17:28;;;;;;;;;;;20.40;65.50;;;;;;483359;246;1661;-44
2021/07/14 00:24:05;;;;;;;;;;;20.40;65.50;;;;;;484688;246;2132;-43
2021/07/14 00:26:04;;;;;;;;;;;20.40;65.50;;;;;;485070;246;2162;-44
2021/07/14 00:28:06;;;;;;;;;;;20.40;65.50;;;;;;485027;245;1026;-43
2021/07/14 00:30:09;;;;;;;;;;;20.40;65.50;;;;;;485128;245;1060;-43
2021/07/14 00:32:09;;;;;;;;;;;20.30;65.40;;;;;;484626;245;1480;-44
2021/07/14 00:34:10;;;;;;;;;;;20.40;65.50;;;;;;485167;245;1080;-43
2021/07/14 00:36:12;;;;;;;;;;;20.30;65.50;;;;;;484954;245;1257;-44
2021/07/14 00:38:13;;;;;;;;;;;20.30;65.50;;;;;;485154;245;1706;-44
2021/07/14 00:40:14;;;;;;;;;;;20.30;65.60;;;;;;484738;245;1076;-44
2021/07/14 00:42:16;;;;;;;;;;;20.30;65.60;;;;;;484720;245;1205;-44
2021/07/14 00:44:17;;;;;;;;;;;20.30;65.50;;;;;;484687;245;2144;-44
2021/07/14 00:46:18;;;;;;;;;;;20.40;65.60;;;;;;485054;245;1137;-44
2021/07/14 00:48:20;;;;;;;;;;;20.40;65.60;;;;;;484841;245;1193;-44
2021/07/14 00:50:21;;;;;;;;;;;20.40;65.60;;;;;;484667;245;1244;-43
2021/07/14 00:52:23;;;;;;;;;;;20.40;65.40;;;;;;485074;245;1571;-43
2021/07/14 00:54:24;;;;;;;;;;;20.40;65.40;;;;;;485120;245;1134;-44
2021/07/14 00:56:25;;;;;;;;;;;20.40;65.40;;;;;;484952;245;1480;-43
2021/07/14 00:58:26;;;;;;;;;;;20.40;65.40;;;;;;485114;245;1100;-43
2021/07/14 01:00:28;;;;;;;;;;;20.40;65.50;;;;;;485153;245;1120;-43
2021/07/14 01:02:29;;;;;;;;;;;20.40;65.60;;;;;;484755;245;1150;-44
2021/07/14 01:04:30;;;;;;;;;;;20.40;65.50;;;;;;484747;245;2149;-43
2021/07/14 01:06:32;;;;;;;;;;;20.30;65.40;;;;;;484629;242;1292;-44
2021/07/14 01:08:33;;;;;;;;;;;20.30;65.40;;;;;;484682;245;1049;-43
2021/07/14 01:10:34;;;;;;;;;;;20.40;65.50;;;;;;485171;245;1067;-44
2021/07/14 01:12:36;;;;;;;;;;;20.40;65.50;;;;;;484923;245;1150;-43
2021/07/14 01:14:37;;;;;;;;;;;20.30;65.40;;;;;;485161;245;1145;-43
2021/07/14 01:16:38;;;;;;;;;;;20.30;65.50;;;;;;484644;245;1334;-44
2021/07/14 01:18:40;;;;;;;;;;;20.40;65.50;;;;;;484865;245;1076;-44
2021/07/14 01:20:41;;;;;;;;;;;20.40;65.50;;;;;;485049;245;1201;-44
2021/07/14 01:22:42;;;;;;;;;;;20.40;65.50;;;;;;484690;245;1455;-43
2021/07/14 01:24:44;;;;;;;;;;;20.40;65.60;;;;;;484703;245;2208;-43
2021/07/14 01:26:45;;;;;;;;;;;20.40;65.50;;;;;;484750;243;1122;-44
2021/07/14 01:28:46;;;;;;;;;;;20.40;65.50;;;;;;484888;245;1224;-44
2021/07/14 01:30:47;;;;;;;;;;;20.40;65.50;;;;;;485125;245;1279;-43
2021/07/14 01:32:49;;;;;;;;;;;20.40;65.50;;;;;;485167;245;1203;-43
2021/07/14 01:34:50;;;;;;;;;;;20.40;65.50;;;;;;484954;245;1094;-44
2021/07/14 01:36:51;;;;;;;;;;;20.40;65.50;;;;;;484866;245;1275;-44
2021/07/14 01:38:53;;;;;;;;;;;20.40;65.50;;;;;;484734;245;1162;-44
2021/07/14 01:40:54;;;;;;;;;;;20.40;65.50;;;;;;484654;245;1877;-44
2021/07/14 01:42:55;;;;;;;;;;;20.30;65.40;;;;;;485147;245;1085;-43
2021/07/14 01:44:57;;;;;;;;;;;20.30;65.60;;;;;;484895;245;2148;-44
2021/07/14 01:46:58;;;;;;;;;;;20.40;65.50;;;;;;485055;245;1298;-43
2021/07/14 01:48:59;;;;;;;;;;;20.40;65.50;;;;;;484931;245;1067;-43
2021/07/14 01:51:01;;;;;;;;;;;20.30;65.40;;;;;;484853;245;1320;-43
2021/07/14 01:53:02;;;;;;;;;;;20.40;65.40;;;;;;484696;245;1211;-43
2021/07/14 01:55:03;;;;;;;;;;;20.30;65.50;;;;;;484676;245;1165;-43
2021/07/14 01:57:05;;;;;;;;;;;20.30;65.60;;;;;;484661;245;1324;-43
2021/07/14 01:59:06;;;;;;;;;;;20.40;65.50;;;;;;484962;245;1064;-44
2021/07/14 02:01:07;;;;;;;;;;;20.30;65.50;;;;;;484682;245;1245;-43
2021/07/14 02:03:18;;;;;;;;;;;20.30;65.50;;;;;;484862;245;1285;-43
2021/07/14 02:05:10;;;;;;;;;;;20.30;65.50;;;;;;484109;246;2246;-44
2021/07/14 02:07:11;;;;;;;;;;;20.30;65.50;;;;;;484652;245;1167;-43
2021/07/14 02:09:13;;;;;;;;;;;20.40;65.50;;;;;;485150;245;1069;-43
2021/07/14 02:11:14;;;;;;;;;;;20.30;65.60;;;;;;485166;245;1047;-43
2021/07/14 02:13:16;;;;;;;;;;;20.40;65.50;;;;;;485180;245;1061;-43
2021/07/14 02:15:17;;;;;;;;;;;20.40;65.50;;;;;;484836;245;1924;-44
2021/07/14 02:17:18;;;;;;;;;;;20.40;65.50;;;;;;485047;245;1029;-44
2021/07/14 02:19:20;;;;;;;;;;;20.40;65.40;;;;;;485210;245;1076;-43
2021/07/14 02:21:21;;;;;;;;;;;20.30;65.40;;;;;;484755;245;1103;-43
2021/07/14 02:23:22;;;;;;;;;;;20.30;65.50;;;;;;484755;245;1110;-43
2021/07/14 02:25:24;;;;;;;;;;;20.40;65.60;;;;;;484710;245;2212;-44
2021/07/14 02:27:25;;;;;;;;;;;20.40;65.50;;;;;;484711;245;1241;-44
2021/07/14 02:29:26;;;;;;;;;;;20.40;65.50;;;;;;484725;245;1037;-43
2021/07/14 02:31:28;;;;;;;;;;;20.30;65.50;;;;;;484929;245;1220;-42
2021/07/14 02:33:29;;;;;;;;;;;20.30;65.50;;;;;;484721;245;1064;-43
2021/07/14 02:35:30;;;;;;;;;;;20.30;65.50;;;;;;484821;245;1072;-44
2021/07/14 02:37:31;;;;;;;;;;;20.30;65.60;;;;;;484647;245;1292;-44
2021/07/14 02:39:33;;;;;;;;;;;20.30;65.50;;;;;;485168;245;1053;-43
2021/07/14 02:41:34;;;;;;;;;;;20.30;65.50;;;;;;484899;245;1350;-44
2021/07/14 02:43:36;;;;;;;;;;;20.30;65.40;;;;;;484785;245;1216;-43
2021/07/14 02:45:37;;;;;;;;;;;20.40;65.50;;;;;;484827;245;2262;-43
2021/07/14 02:47:38;;;;;;;;;;;20.30;65.50;;;;;;485223;245;1505;-44
2021/07/14 02:49:39;;;;;;;;;;;20.30;65.60;;;;;;485116;245;1030;-44
2021/07/14 02:51:41;;;;;;;;;;;20.30;65.60;;;;;;485071;245;1343;-44
2021/07/14 02:53:42;;;;;;;;;;;20.30;65.60;;;;;;484749;245;1215;-44
2021/07/14 02:55:43;;;;;;;;;;;20.30;65.60;;;;;;485042;245;1221;-43
2021/07/14 02:57:45;;;;;;;;;;;20.30;65.60;;;;;;485155;245;1200;-43
2021/07/14 02:59:46;;;;;;;;;;;20.30;65.60;;;;;;484954;245;1141;-44
2021/07/14 03:01:47;;;;;;;;;;;20.30;65.50;;;;;;485098;245;1205;-43
2021/07/14 03:03:49;;;;;;;;;;;20.30;65.60;;;;;;484765;245;956;-44
2021/07/14 03:05:50;;;;;;;;;;;20.30;65.60;;;;;;485197;245;2140;-44
2021/07/14 03:07:51;;;;;;;;;;;20.30;65.70;;;;;;484618;245;1213;-44
2021/07/14 03:09:53;;;;;;;;;;;20.30;65.70;;;;;;484809;245;1113;-44
2021/07/14 03:11:54;;;;;;;;;;;20.30;65.60;;;;;;484726;245;1383;-43
2021/07/14 03:13:56;;;;;;;;;;;20.30;65.50;;;;;;485257;245;1372;-43
2021/07/14 03:15:56;;;;;;;;;;;20.30;65.60;;;;;;484722;246;2250;-44
2021/07/14 03:17:58;;;;;;;;;;;20.30;65.60;;;;;;485224;245;1190;-43
2021/07/14 03:19:59;;;;;;;;;;;20.30;65.60;;;;;;484780;245;1045;-43
2021/07/14 03:22:00;;;;;;;;;;;20.30;65.50;;;;;;484720;245;1106;-43
2021/07/14 03:24:02;;;;;;;;;;;20.30;65.60;;;;;;484807;245;1197;-43
2021/07/14 03:26:03;;;;;;;;;;;20.30;65.50;;;;;;484993;245;2192;-44
2021/07/14 03:28:04;;;;;;;;;;;20.40;65.60;;;;;;485083;245;1104;-43
2021/07/14 03:30:06;;;;;;;;;;;20.30;65.50;;;;;;484710;245;1146;-44
2021/07/14 03:32:07;;;;;;;;;;;20.30;65.60;;;;;;484585;245;1209;-43
2021/07/14 03:34:08;;;;;;;;;;;20.40;65.60;;;;;;484734;245;1063;-44
2021/07/14 03:36:10;;;;;;;;;;;20.40;65.60;;;;;;484675;245;1462;-44
2021/07/14 03:38:11;;;;;;;;;;;20.40;65.50;;;;;;484688;245;1157;-43
2021/07/14 03:40:12;;;;;;;;;;;20.30;65.40;;;;;;485167;245;1071;-43
2021/07/14 03:42:14;;;;;;;;;;;20.30;65.60;;;;;;484801;245;1215;-44
2021/07/14 03:44:15;;;;;;;;;;;20.30;65.60;;;;;;485181;245;2187;-44
2021/07/14 03:46:17;;;;;;;;;;;20.30;65.60;;;;;;485063;245;1239;-43
2021/07/14 03:48:18;;;;;;;;;;;20.30;65.60;;;;;;484741;245;1172;-43
2021/07/14 03:50:19;;;;;;;;;;;20.30;65.60;;;;;;485202;245;1085;-44
2021/07/14 03:52:21;;;;;;;;;;;20.30;65.50;;;;;;484720;245;1083;-44
2021/07/14 03:54:22;;;;;;;;;;;20.40;65.60;;;;;;484729;245;1180;-43
2021/07/14 03:56:23;;;;;;;;;;;20.30;65.50;;;;;;485032;245;1449;-43
2021/07/14 03:58:25;;;;;;;;;;;20.30;65.60;;;;;;484720;245;1058;-44
2021/07/14 04:00:26;;;;;;;;;;;20.30;65.40;;;;;;484730;245;1076;-43
2021/07/14 04:02:27;;;;;;;;;;;20.40;65.50;;;;;;484677;245;1138;-43
2021/07/14 04:04:29;;;;;;;;;;;20.40;65.50;;;;;;484954;245;2141;-44
2021/07/14 04:06:33;;;;;;;;;;;20.40;65.50;;;;;;485020;245;1672;-43
2021/07/14 04:08:33;;;;;;;;;;;20.30;65.60;;;;;;484534;245;1458;-43
2021/07/14 04:10:34;;;;;;;;;;;20.30;65.60;;;;;;484869;245;1095;-43
2021/07/14 04:12:36;;;;;;;;;;;20.30;65.70;;;;;;485037;245;1040;-44
2021/07/14 04:14:37;;;;;;;;;;;20.30;65.60;;;;;;485151;245;1045;-43
2021/07/14 04:16:38;;;;;;;;;;;20.30;65.60;;;;;;485081;245;1160;-44
2021/07/14 04:18:40;;;;;;;;;;;20.30;65.40;;;;;;485153;245;1164;-44
2021/07/14 04:20:41;;;;;;;;;;;20.30;65.40;;;;;;485141;245;2272;-44
2021/07/14 04:22:42;;;;;;;;;;;20.30;65.50;;;;;;484981;245;1172;-44
2021/07/14 04:24:44;;;;;;;;;;;20.30;65.40;;;;;;484696;245;2199;-43
2021/07/14 04:26:45;;;;;;;;;;;20.30;65.50;;;;;;485054;245;1074;-43
2021/07/14 04:28:46;;;;;;;;;;;20.30;65.50;;;;;;484840;245;1119;-44
2021/07/14 04:30:48;;;;;;;;;;;20.40;65.50;;;;;;485085;245;1063;-44
2021/07/14 04:32:49;;;;;;;;;;;20.40;65.50;;;;;;484652;245;1214;-44
2021/07/14 04:34:50;;;;;;;;;;;20.30;65.40;;;;;;484642;245;1067;-43
2021/07/14 04:36:52;;;;;;;;;;;20.40;65.50;;;;;;484928;245;1502;-44
2021/07/14 04:38:53;;;;;;;;;;;20.40;65.50;;;;;;484878;245;1274;-43
2021/07/14 04:40:54;;;;;;;;;;;20.30;65.60;;;;;;485000;245;1091;-43
2021/07/14 04:42:56;;;;;;;;;;;20.30;65.60;;;;;;484956;245;1284;-44
2021/07/14 04:44:57;;;;;;;;;;;20.30;65.70;;;;;;484790;245;2136;-43
2021/07/14 04:46:58;;;;;;;;;;;20.30;65.70;;;;;;484386;245;1291;-43
2021/07/14 04:49:00;;;;;;;;;;;20.30;65.70;;;;;;484804;245;1075;-43
2021/07/14 04:51:01;;;;;;;;;;;20.30;65.50;;;;;;484638;245;1124;-43
2021/07/14 04:53:02;;;;;;;;;;;20.30;65.50;;;;;;484842;245;1183;-44
2021/07/14 04:55:04;;;;;;;;;;;20.30;65.60;;;;;;484654;245;1143;-43
2021/07/14 04:57:05;;;;;;;;;;;20.30;65.50;;;;;;484646;245;1309;-43
2021/07/14 04:59:06;;;;;;;;;;;20.30;65.50;;;;;;484663;245;1355;-43
2021/07/14 05:01:08;;;;;;;;;;;20.30;65.60;;;;;;484438;245;1213;-44
2021/07/14 05:03:09;;;;;;;;;;;20.30;65.60;;;;;;484696;245;1233;-43
2021/07/14 05:05:10;;;;;;;;;;;20.30;65.60;;;;;;484577;245;2196;-44
2021/07/14 05:07:12;;;;;;;;;;;20.30;65.60;;;;;;484405;245;1696;-43
2021/07/14 05:09:13;;;;;;;;;;;20.30;65.50;;;;;;484524;245;1322;-43
2021/07/14 05:11:14;;;;;;;;;;;20.30;65.50;;;;;;484869;245;1429;-43
2021/07/14 05:13:16;;;;;;;;;;;20.30;65.50;;;;;;484954;245;1242;-43
2021/07/14 05:15:18;;;;;;;;;;;20.30;65.50;;;;;;484855;245;1098;-43
2021/07/14 05:17:19;;;;;;;;;;;20.30;65.70;;;;;;484509;245;1203;-44
2021/07/14 05:19:20;;;;;;;;;;;20.30;65.60;;;;;;484435;245;1121;-43
2021/07/14 05:21:22;;;;;;;;;;;20.30;65.60;;;;;;484526;245;1251;-43
2021/07/14 05:23:23;;;;;;;;;;;20.30;65.60;;;;;;484451;245;1074;-44
2021/07/14 05:25:24;;;;;;;;;;;20.30;65.50;;;;;;484515;245;2184;-43
2021/07/14 05:27:26;;;;;;;;;;;20.30;65.60;;;;;;484772;245;1148;-43
2021/07/14 05:29:27;;;;;;;;;;;20.30;65.60;;;;;;484448;245;1087;-43
2021/07/14 05:31:28;;;;;;;;;;;20.30;65.60;;;;;;484347;245;1495;-43
2021/07/14 05:33:29;;;;;;;;;;;20.30;65.60;;;;;;484673;245;1148;-44
2021/07/14 05:35:31;;;;;;;;;;;20.30;65.60;;;;;;484511;245;1329;-43
2021/07/14 05:37:32;;;;;;;;;;;20.30;65.70;;;;;;484342;245;1185;-43
2021/07/14 05:39:33;;;;;;;;;;;20.30;65.70;;;;;;484734;245;1224;-43
2021/07/14 05:41:36;;;;;;;;;;;20.30;65.70;;;;;;484560;245;1528;-43
2021/07/14 05:43:36;;;;;;;;;;;20.30;65.70;;;;;;484513;245;2155;-44
2021/07/14 05:45:38;;;;;;;;;;;20.30;65.70;;;;;;484289;245;2199;-44
2021/07/14 05:47:39;;;;;;;;;;;20.30;65.70;;;;;;484657;245;1175;-43
2021/07/14 05:49:41;;;;;;;;;;;20.30;65.70;;;;;;484459;245;1062;-44
2021/07/14 05:51:42;;;;;;;;;;;20.30;65.70;;;;;;484482;245;1279;-43
2021/07/14 05:53:43;;;;;;;;;;;20.30;65.60;;;;;;484510;245;1215;-43
2021/07/14 05:55:44;;;;;;;;;;;20.30;65.60;;;;;;484174;245;1192;-43
2021/07/14 05:57:46;;;;;;;;;;;20.30;65.50;;;;;;484361;245;1348;-43
2021/07/14 05:59:47;;;;;;;;;;;20.30;65.60;;;;;;484361;245;1147;-43
2021/07/14 06:01:48;;;;;;;;;;;20.30;65.70;;;;;;484134;245;1329;-43
2021/07/14 06:03:50;;;;;;;;;;;20.30;65.70;;;;;;484449;245;1309;-43
2021/07/14 06:05:51;;;;;;;;;;;20.30;65.60;;;;;;484335;245;2140;-43
2021/07/14 06:07:52;;;;;;;;;;;20.30;65.60;;;;;;484268;245;1195;-44
2021/07/14 06:09:54;;;;;;;;;;;20.30;65.60;;;;;;484494;245;1171;-43
2021/07/14 06:11:55;;;;;;;;;;;20.30;65.60;;;;;;484525;245;1276;-44
2021/07/14 06:13:57;;;;;;;;;;;20.30;65.60;;;;;;484287;245;1252;-43
2021/07/14 06:15:58;;;;;;;;;;;20.30;65.70;;;;;;484275;245;1340;-43
2021/07/14 06:17:59;;;;;;;;;;;20.30;65.70;;;;;;484332;245;1086;-44
2021/07/14 06:20:01;;;;;;;;;;;20.30;65.70;;;;;;484311;245;1158;-44
2021/07/14 06:22:02;;;;;;;;;;;20.20;65.70;;;;;;484243;245;1219;-44
2021/07/14 06:24:03;;;;;;;;;;;20.30;65.70;;;;;;484077;245;1085;-43
2021/07/14 06:26:04;;;;;;;;;;;20.30;65.80;;;;;;484056;245;2176;-44
2021/07/14 06:28:07;;;;;;;;;;;20.20;65.70;;;;;;484160;245;1147;-43
2021/07/14 06:30:09;;;;;;;;;;;20.20;65.70;;;;;;484012;245;1648;-43
2021/07/14 06:32:09;;;;;;;;;;;20.20;65.70;;;;;;483856;245;2060;-43
2021/07/14 06:34:10;;;;;;;;;;;20.20;65.70;;;;;;484225;245;1097;-44
2021/07/14 06:36:12;;;;;;;;;;;20.30;65.70;;;;;;484178;245;1083;-43
2021/07/14 06:38:13;;;;;;;;;;;20.30;65.60;;;;;;484259;245;1452;-43
2021/07/14 06:40:15;;;;;;;;;;;20.30;65.60;;;;;;484211;245;1208;-43
2021/07/14 06:42:16;;;;;;;;;;;20.30;65.70;;;;;;484125;245;1288;-44
2021/07/14 06:44:18;;;;;;;;;;;20.30;65.70;;;;;;484129;245;1205;-44
2021/07/14 06:46:19;;;;;;;;;;;20.30;65.80;;;;;;483964;245;2194;-43
2021/07/14 06:48:20;;;;;;;;;;;20.20;65.70;;;;;;484128;245;1056;-44
2021/07/14 06:50:21;;;;;;;;;;;20.30;65.80;;;;;;484260;245;1091;-44
2021/07/14 06:52:22;;;;;;;;;;;20.20;65.80;;;;;;484456;245;1147;-44
2021/07/14 06:54:24;;;;;;;;;;;20.30;65.80;;;;;;484030;245;1098;-44
2021/07/14 06:56:25;;;;;;;;;;;20.30;65.60;;;;;;484033;245;1327;-43
2021/07/14 06:58:27;;;;;;;;;;;20.30;65.70;;;;;;484193;245;1169;-43
2021/07/14 07:00:28;;;;;;;;;;;20.30;65.60;;;;;;484011;245;1210;-43
2021/07/14 07:02:29;;;;;;;;;;;20.30;65.60;;;;;;483977;245;1171;-43
2021/07/14 07:04:30;;;;;;;;;;;20.30;65.60;;;;;;483986;245;1110;-43
2021/07/14 07:06:32;;;;;;;;;;;20.30;65.70;;;;;;483947;244;2149;-44
2021/07/14 07:08:33;;;;;;;;;;;20.30;65.60;;;;;;484042;245;1221;-44
2021/07/14 07:10:35;;;;;;;;;;;20.30;65.60;;;;;;484009;245;1203;-43
2021/07/14 07:12:36;;;;;;;;;;;20.30;65.50;;;;;;483837;245;1232;-43
2021/07/14 07:14:38;;;;;;;;;;;20.30;65.40;;;;;;483930;245;1072;-43
2021/07/14 07:16:39;;;;;;;;;;;20.30;65.60;;;;;;484178;245;1370;-43
2021/07/14 07:18:40;;;;;;;;;;;20.30;65.60;;;;;;484060;245;1132;-43
2021/07/14 07:20:41;;;;;;;;;;;20.30;65.50;;;;;;484047;245;1421;-43
2021/07/14 07:22:43;;;;;;;;;;;20.30;65.60;;;;;;483856;245;1226;-43
2021/07/14 07:24:44;;;;;;;;;;;20.30;65.60;;;;;;484018;245;1191;-43
2021/07/14 07:26:47;;;;;;;;;;;20.30;65.60;;;;;;483868;245;2190;-43
2021/07/14 07:28:47;;;;;;;;;;;20.30;65.60;;;;;;484432;245;2132;-44
2021/07/14 07:30:48;;;;;;;;;;;20.30;65.60;;;;;;483906;245;1148;-43
2021/07/14 07:32:49;;;;;;;;;;;20.30;65.70;;;;;;483712;245;1049;-44
2021/07/14 07:34:51;;;;;;;;;;;20.30;65.60;;;;;;484475;245;830;-43
2021/07/14 07:36:52;;;;;;;;;;;20.30;65.60;;;;;;484022;245;1206;-44
2021/07/14 07:38:53;;;;;;;;;;;20.30;65.60;;;;;;484511;245;891;-43
2021/07/14 07:40:57;;;;;;;;;;;20.30;65.40;;;;;;484160;245;1097;-43
2021/07/14 07:42:56;;;;;;;;;;;20.30;65.50;;;;;;483565;246;1935;-43
2021/07/14 07:44:57;;;;;;;;;;;20.30;65.40;;;;;;483540;245;1090;-43
2021/07/14 07:46:58;;;;;;;;;;;20.30;65.40;;;;;;483506;245;2208;-43
2021/07/14 07:49:00;;;;;;;;;;;20.30;65.50;;;;;;483620;245;1135;-43
2021/07/14 07:51:01;;;;;;;;;;;20.30;65.50;;;;;;483656;245;1091;-43
2021/07/14 07:53:02;;;;;;;;;;;20.30;65.40;;;;;;483831;245;1136;-44
2021/07/14 07:55:04;;;;;;;;;;;20.40;65.50;;;;;;483667;245;1570;-43
2021/07/14 07:57:05;;;;;;;;;;;20.30;65.40;;;;;;483795;245;1182;-43
2021/07/14 07:59:06;;;;;;;;;;;20.30;65.40;;;;;;483678;245;1198;-44
2021/07/14 08:01:08;;;;;;;;;;;20.30;65.50;;;;;;483659;245;1097;-43
2021/07/14 08:03:09;;;;;;;;;;;20.30;65.50;;;;;;483796;245;1203;-44
2021/07/14 08:05:10;;;;;;;;;;;20.30;65.60;;;;;;483638;245;1236;-43
2021/07/14 08:07:12;;;;;;;;;;;20.30;65.60;;;;;;483571;245;2145;-44
2021/07/14 08:09:13;;;;;;;;;;;20.30;65.40;;;;;;483806;245;1220;-43
2021/07/14 08:11:14;;;;;;;;;;;20.30;65.40;;;;;;483788;245;1248;-43
2021/07/14 08:13:17;;;;;;;;;;;20.30;65.40;;;;;;483823;245;1095;-43
2021/07/14 08:15:17;;;;;;;;;;;20.30;65.40;;;;;;484112;246;1645;-44
2021/07/14 08:17:19;;;;;;;;;;;20.30;65.40;;;;;;484629;245;1086;-44
2021/07/14 08:19:20;;;;;;;;;;;20.30;65.50;;;;;;484237;245;918;-43
2021/07/14 08:21:23;;;;;;;;;;;20.30;65.40;;;;;;484123;245;963;-44
2021/07/14 08:23:23;;;;;;;;;;;20.30;65.30;;;;;;484569;245;2154;-44
2021/07/14 08:25:24;;;;;;;;;;;20.30;65.40;;;;;;484657;245;874;-43
2021/07/14 08:27:25;;;;;;;;;;;20.30;65.40;;;;;;484016;245;2191;-44
2021/07/14 08:29:26;;;;;;;;;;;20.30;65.50;;;;;;484053;245;1265;-44
2021/07/14 08:31:28;;;;;;;;;;;20.30;65.50;;;;;;484231;245;1186;-44
2021/07/14 08:33:29;;;;;;;;;;;20.30;65.40;;;;;;483946;245;1062;-43
2021/07/14 08:35:30;;;;;;;;;;;20.30;65.40;;;;;;484429;245;1152;-46
2021/07/14 08:37:32;;;;;;;;;;;20.30;65.50;;;;;;483736;245;1198;-46
2021/07/14 08:39:33;;;;;;;;;;;20.30;65.50;;;;;;484640;245;853;-46
2021/07/14 08:41:34;;;;;;;;;;;20.30;65.40;;;;;;484068;245;1172;-46
2021/07/14 08:43:36;;;;;;;;;;;20.30;65.40;;;;;;484698;245;900;-46
2021/07/14 08:45:38;;;;;;;;;;;20.30;65.40;;;;;;484110;245;1154;-46
2021/07/14 08:47:39;;;;;;;;;;;20.40;65.40;;;;;;484452;245;2195;-43
2021/07/14 08:49:40;;;;;;;;;;;20.40;65.40;;;;;;484582;245;854;-43
2021/07/14 08:51:41;;;;;;;;;;;20.40;65.40;;;;;;484122;242;1085;-43
2021/07/14 08:53:43;;;;;;;;;;;20.30;65.40;;;;;;484583;245;1290;-43
2021/07/14 08:55:44;;;;;;;;;;;20.30;65.40;;;;;;484415;245;1295;-44
2021/07/14 08:57:45;;;;;;;;;;;20.30;65.40;;;;;;483903;245;1392;-44
2021/07/14 08:59:47;;;;;;;;;;;20.40;65.40;;;;;;484560;245;1380;-43
2021/07/14 09:01:48;;;;;;;;;;;20.30;65.40;;;;;;484151;242;1146;-43
2021/07/14 09:03:49;;;;;;;;;;;20.30;65.40;;;;;;484680;245;887;-44
2021/07/14 09:05:51;;;;;;;;;;;20.30;65.50;;;;;;484589;245;893;-43
2021/07/14 09:07:52;;;;;;;;;;;20.30;65.50;;;;;;484055;245;2187;-44
2021/07/14 09:09:53;;;;;;;;;;;20.30;65.50;;;;;;484436;245;1074;-43
2021/07/14 09:11:56;;;;;;;;;;;20.40;65.50;;;;;;484018;245;1213;-43
2021/07/14 09:13:56;;;;;;;;;;;20.40;65.40;;;;;;484378;246;1275;-43
2021/07/14 09:15:57;;;;;;;;;;;20.40;65.40;;;;;;483656;245;1260;-44
2021/07/14 09:17:58;;;;;;;;;;;20.40;65.40;;;;;;484042;245;1281;-44
2021/07/14 09:20:00;;;;;;;;;;;20.40;65.40;;;;;;484479;245;901;-44
2021/07/14 09:22:01;;;;;;;;;;;20.40;65.30;;;;;;483905;245;1424;-44
2021/07/14 09:24:02;;;;;;;;;;;20.40;65.40;;;;;;484352;245;1111;-44
2021/07/14 09:26:04;;;;;;;;;;;20.40;65.40;;;;;;483907;245;1315;-43
2021/07/14 09:28:07;;;;;;;;;;;20.40;65.50;;;;;;484066;245;2199;-43
2021/07/14 09:30:07;;;;;;;;;;;20.40;65.30;;;;;;483957;245;1349;-44
2021/07/14 09:32:08;;;;;;;;;;;20.30;65.30;;;;;;483913;245;1156;-43
2021/07/14 09:34:09;;;;;;;;;;;20.40;65.40;;;;;;484440;245;1341;-44
2021/07/14 09:36:11;;;;;;;;;;;20.40;65.40;;;;;;484300;245;1142;-43
2021/07/14 09:38:12;;;;;;;;;;;20.30;65.50;;;;;;483959;245;1174;-43
2021/07/14 09:40:13;;;;;;;;;;;20.30;65.40;;;;;;484446;245;841;-43
2021/07/14 09:42:15;;;;;;;;;;;20.40;65.40;;;;;;484227;245;1179;-43
2021/07/14 09:44:16;;;;;;;;;;;20.40;65.40;;;;;;484428;245;901;-43
2021/07/14 09:46:19;;;;;;;;;;;20.30;65.40;;;;;;483932;245;1197;-43
2021/07/14 09:48:19;;;;;;;;;;;20.40;65.40;;;;;;484323;245;2183;-44
2021/07/14 09:50:20;;;;;;;;;;;20.40;65.40;;;;;;484539;245;907;-43
2021/07/14 09:52:21;;;;;;;;;;;20.30;65.40;;;;;;484181;245;1171;-43
2021/07/14 09:54:23;;;;;;;;;;;20.40;65.40;;;;;;484605;245;913;-44
2021/07/14 09:56:25;;;;;;;;;;;20.40;65.30;;;;;;484206;245;1141;-44
2021/07/14 09:58:25;;;;;;;;;;;20.40;65.30;;;;;;484072;245;1873;-44
2021/07/14 10:00:27;;;;;;;;;;;20.30;65.40;;;;;;484231;245;1090;-43
2021/07/14 10:02:28;;;;;;;;;;;20.30;65.40;;;;;;484108;245;1079;-43
2021/07/14 10:04:31;;;;;;;;;;;20.30;65.50;;;;;;484663;245;1281;-43
2021/07/14 10:06:30;;;;;;;;;;;20.40;65.40;;;;;;483977;246;2192;-44
2021/07/14 10:08:32;;;;;;;;;;;20.40;65.30;;;;;;484618;245;1033;-44
2021/07/14 10:10:33;;;;;;;;;;;20.40;65.40;;;;;;484227;245;869;-43
2021/07/14 10:12:35;;;;;;;;;;;20.40;65.40;;;;;;484476;245;1251;-43
2021/07/14 10:14:36;;;;;;;;;;;20.30;65.40;;;;;;484644;245;1059;-43
2021/07/14 10:16:37;;;;;;;;;;;20.30;65.40;;;;;;483807;245;1055;-43
2021/07/14 10:18:39;;;;;;;;;;;20.30;65.40;;;;;;484469;245;1048;-44
2021/07/14 10:20:43;;;;;;;;;;;20.20;65.70;;;;;;484026;245;1486;-43
2021/07/14 10:22:42;;;;;;;;;;;20.20;65.90;;;;;;484291;246;2144;-44
2021/07/14 10:24:43;;;;;;;;;;;20.20;66.10;;;;;;483698;245;1369;-44
2021/07/14 10:26:45;;;;;;;;;;;20.10;66.00;;;;;;483886;245;2179;-46
2021/07/14 10:28:46;;;;;;;;;;;20.10;66.30;;;;;;483789;245;1091;-43
2021/07/14 10:30:47;;;;;;;;;;;20.10;66.30;;;;;;483945;245;1188;-43
2021/07/14 10:32:48;;;;;;;;;;;20.00;66.40;;;;;;483664;245;1322;-43
2021/07/14 10:34:50;;;;;;;;;;;20.10;66.30;;;;;;484105;245;1307;-44
2021/07/14 10:36:51;;;;;;;;;;;20.20;66.10;;;;;;483973;245;1101;-43
2021/07/14 10:38:52;;;;;;;;;;;20.20;65.90;;;;;;484375;245;884;-43
2021/07/14 10:40:54;;;;;;;;;;;20.20;65.90;;;;;;484520;245;876;-43
2021/07/14 10:42:55;;;;;;;;;;;20.20;65.90;;;;;;484004;245;1249;-43
2021/07/14 10:44:56;;;;;;;;;;;20.20;65.90;;;;;;484416;245;853;-44
2021/07/14 10:46:58;;;;;;;;;;;20.30;65.70;;;;;;483949;245;2194;-43
2021/07/14 10:48:59;;;;;;;;;;;20.30;65.60;;;;;;483911;245;957;-43
2021/07/14 10:51:00;;;;;;;;;;;20.30;65.40;;;;;;484054;245;850;-43
2021/07/14 10:53:02;;;;;;;;;;;20.30;65.40;;;;;;484025;245;903;-43
2021/07/14 10:55:03;;;;;;;;;;;20.30;65.50;;;;;;484409;245;1148;-43
2021/07/14 10:57:06;;;;;;;;;;;20.30;65.50;;;;;;483948;245;1183;-43
2021/07/14 10:59:06;;;;;;;;;;;20.30;65.60;;;;;;484067;245;1978;-44
2021/07/14 11:01:08;;;;;;;;;;;20.20;65.70;;;;;;484024;245;1178;-43
2021/07/14 11:03:09;;;;;;;;;;;20.20;65.60;;;;;;484560;245;1088;-44
2021/07/14 11:05:10;;;;;;;;;;;20.30;65.60;;;;;;484154;245;881;-43
2021/07/14 11:07:11;;;;;;;;;;;20.30;65.50;;;;;;484412;245;2187;-43
2021/07/14 11:09:13;;;;;;;;;;;20.30;65.50;;;;;;484170;245;1033;-44
2021/07/14 11:11:14;;;;;;;;;;;20.30;65.50;;;;;;483840;245;1115;-43
2021/07/14 11:13:15;;;;;;;;;;;20.30;65.60;;;;;;483774;245;1195;-43
2021/07/14 11:15:17;;;;;;;;;;;20.30;65.60;;;;;;483880;245;1118;-44
2021/07/14 11:17:18;;;;;;;;;;;20.30;65.60;;;;;;483935;245;1292;-43
2021/07/14 11:19:20;;;;;;;;;;;20.30;65.60;;;;;;484079;245;1092;-44
2021/07/14 11:21:21;;;;;;;;;;;20.30;65.60;;;;;;483919;245;2083;-44
2021/07/14 11:23:22;;;;;;;;;;;20.30;65.60;;;;;;483798;245;1189;-43
2021/07/14 11:25:24;;;;;;;;;;;20.30;65.60;;;;;;483805;245;1163;-44
2021/07/14 11:27:25;;;;;;;;;;;20.30;65.60;;;;;;483600;245;2199;-43
2021/07/14 11:29:26;;;;;;;;;;;20.30;65.60;;;;;;483718;245;1176;-44
2021/07/14 11:31:28;;;;;;;;;;;20.30;65.60;;;;;;483689;245;1111;-43
2021/07/14 11:33:29;;;;;;;;;;;20.30;65.60;;;;;;483702;245;1090;-44
2021/07/14 11:35:30;;;;;;;;;;;20.30;65.60;;;;;;483845;245;1252;-43
2021/07/14 11:37:32;;;;;;;;;;;20.30;65.50;;;;;;483816;245;1061;-44
2021/07/14 11:39:33;;;;;;;;;;;20.30;65.60;;;;;;483916;245;1070;-43
2021/07/14 11:41:34;;;;;;;;;;;20.30;65.60;;;;;;483720;245;1828;-43
2021/07/14 11:43:36;;;;;;;;;;;20.30;65.50;;;;;;484587;245;1206;-44
2021/07/14 11:45:37;;;;;;;;;;;20.30;65.50;;;;;;484649;245;1211;-43
2021/07/14 11:47:38;;;;;;;;;;;20.30;65.50;;;;;;484296;245;2180;-44
2021/07/14 11:49:39;;;;;;;;;;;20.30;65.50;;;;;;484720;245;1112;-43
2021/07/14 11:51:41;;;;;;;;;;;20.30;65.50;;;;;;483971;245;1270;-43
2021/07/14 11:53:42;;;;;;;;;;;20.30;65.60;;;;;;484570;245;918;-44
2021/07/14 11:55:43;;;;;;;;;;;20.30;65.40;;;;;;484484;245;1103;-44
2021/07/14 11:57:45;;;;;;;;;;;20.30;65.60;;;;;;484029;246;1186;-43
2021/07/14 11:59:46;;;;;;;;;;;20.30;65.50;;;;;;484116;245;1081;-43
2021/07/14 12:01:47;;;;;;;;;;;20.30;65.50;;;;;;484456;245;1198;-44